N950P KPIT-KBHB
Flight info
| Callsign | N950P |
|---|---|
| Flight time | N/A |
| Altitude | 7000 |
| Route | EWC ZORBO J584 SLT HNK J49 ALB ENE |
| Aircraft | C208/L-SDFGRY/C |
Departure
| Time | N/A |
|---|---|
| Airport | Pittsburgh International Airport (KPIT) |
Arrival
| Time | 2026-05-08 16:24 |
|---|---|
| Airport | Hancock County-Bar Harbor Airport (KBHB) |
| Time | Latitude | Longitude | Altitude | Speed | Heading |
|---|---|---|---|---|---|
| 2026-05-08 14:50 | 42.84373 | -73.37882 | 6995 ft | 162 kts | 72° |
| 2026-05-08 14:51 | 42.84704 | -73.36412 | 6992 ft | 162 kts | 72° |
| 2026-05-08 14:51 | 42.85033 | -73.34940 | 6991 ft | 162 kts | 72° |
| 2026-05-08 14:51 | 42.85363 | -73.33470 | 6991 ft | 162 kts | 72° |
| 2026-05-08 14:51 | 42.85691 | -73.32010 | 7041 ft | 159 kts | 72° |
| 2026-05-08 14:52 | 42.86008 | -73.30596 | 7050 ft | 160 kts | 72° |
| 2026-05-08 14:52 | 42.86663 | -73.27669 | 7052 ft | 162 kts | 72° |
| 2026-05-08 14:52 | 42.86989 | -73.26204 | 7052 ft | 162 kts | 72° |
| 2026-05-08 14:53 | 42.87318 | -73.24731 | 7050 ft | 163 kts | 72° |
| 2026-05-08 14:53 | 42.87649 | -73.23251 | 7054 ft | 162 kts | 72° |
| 2026-05-08 14:53 | 42.87978 | -73.21778 | 7054 ft | 162 kts | 72° |
| 2026-05-08 14:53 | 42.88307 | -73.20305 | 7055 ft | 162 kts | 72° |
| 2026-05-08 14:54 | 42.88635 | -73.18829 | 7054 ft | 163 kts | 72° |
| 2026-05-08 14:54 | 42.88964 | -73.17349 | 7055 ft | 163 kts | 72° |
| 2026-05-08 14:54 | 42.89294 | -73.15864 | 7053 ft | 164 kts | 72° |
| 2026-05-08 14:54 | 42.89623 | -73.14378 | 7055 ft | 163 kts | 72° |
| 2026-05-08 14:55 | 42.89955 | -73.12890 | 7051 ft | 164 kts | 72° |
| 2026-05-08 14:55 | 42.90281 | -73.11426 | 7054 ft | 163 kts | 72° |
| 2026-05-08 14:55 | 42.90609 | -73.09943 | 7056 ft | 163 kts | 73° |
| 2026-05-08 14:55 | 42.90939 | -73.08452 | 7051 ft | 164 kts | 72° |
| 2026-05-08 14:56 | 42.91268 | -73.06967 | 7055 ft | 163 kts | 72° |
| 2026-05-08 14:56 | 42.91597 | -73.05485 | 7051 ft | 163 kts | 72° |
| 2026-05-08 14:56 | 42.91924 | -73.04008 | 7052 ft | 162 kts | 72° |
| 2026-05-08 14:56 | 42.92250 | -73.02532 | 7051 ft | 162 kts | 72° |
| 2026-05-08 14:57 | 42.92571 | -73.01079 | 7057 ft | 162 kts | 72° |
| 2026-05-08 14:57 | 42.92898 | -72.99596 | 7053 ft | 163 kts | 73° |
| 2026-05-08 14:57 | 42.93224 | -72.98120 | 7053 ft | 162 kts | 72° |
| 2026-05-08 14:57 | 42.93550 | -72.96645 | 7053 ft | 163 kts | 72° |
| 2026-05-08 14:58 | 42.93874 | -72.95167 | 7051 ft | 162 kts | 73° |
| 2026-05-08 14:58 | 42.94197 | -72.93692 | 7057 ft | 163 kts | 72° |
| 2026-05-08 14:58 | 42.94526 | -72.92202 | 7052 ft | 163 kts | 72° |
| 2026-05-08 14:58 | 42.94854 | -72.90723 | 7057 ft | 163 kts | 72° |
| 2026-05-08 14:59 | 42.95181 | -72.89231 | 7053 ft | 165 kts | 73° |
| 2026-05-08 14:59 | 42.95834 | -72.86252 | 7053 ft | 163 kts | 73° |
| 2026-05-08 14:59 | 42.96158 | -72.84773 | 7050 ft | 163 kts | 73° |
| 2026-05-08 15:00 | 42.96482 | -72.83295 | 7052 ft | 162 kts | 73° |
| 2026-05-08 15:00 | 42.96799 | -72.81834 | 7050 ft | 163 kts | 73° |
| 2026-05-08 15:00 | 42.97128 | -72.80347 | 7054 ft | 164 kts | 72° |
| 2026-05-08 15:00 | 42.97456 | -72.78848 | 7052 ft | 165 kts | 73° |
| 2026-05-08 15:01 | 42.97781 | -72.77357 | 7054 ft | 163 kts | 73° |
| 2026-05-08 15:01 | 42.98109 | -72.75860 | 7053 ft | 163 kts | 73° |
| 2026-05-08 15:01 | 42.98432 | -72.74373 | 7053 ft | 163 kts | 73° |
| 2026-05-08 15:01 | 42.98750 | -72.72913 | 7050 ft | 162 kts | 73° |
| 2026-05-08 15:02 | 42.99072 | -72.71437 | 7051 ft | 162 kts | 73° |
| 2026-05-08 15:02 | 42.99393 | -72.69963 | 7051 ft | 162 kts | 73° |
| 2026-05-08 15:02 | 42.99713 | -72.68489 | 7052 ft | 162 kts | 73° |
| 2026-05-08 15:02 | 43.00034 | -72.67016 | 7050 ft | 162 kts | 73° |
| 2026-05-08 15:03 | 43.00354 | -72.65544 | 7051 ft | 162 kts | 73° |
| 2026-05-08 15:03 | 43.00673 | -72.64072 | 7054 ft | 162 kts | 73° |
| 2026-05-08 15:03 | 43.00994 | -72.62598 | 7051 ft | 162 kts | 73° |
| 2026-05-08 15:03 | 43.01314 | -72.61121 | 7051 ft | 163 kts | 73° |
| 2026-05-08 15:04 | 43.01634 | -72.59642 | 7051 ft | 162 kts | 73° |
| 2026-05-08 15:04 | 43.01954 | -72.58162 | 7051 ft | 162 kts | 73° |
| 2026-05-08 15:04 | 43.02274 | -72.56681 | 7052 ft | 162 kts | 73° |
| 2026-05-08 15:04 | 43.02593 | -72.55206 | 7052 ft | 162 kts | 73° |
| 2026-05-08 15:05 | 43.02912 | -72.53732 | 7053 ft | 162 kts | 73° |
| 2026-05-08 15:05 | 43.03229 | -72.52269 | 7049 ft | 162 kts | 73° |
| 2026-05-08 15:05 | 43.03546 | -72.50795 | 7050 ft | 162 kts | 73° |
| 2026-05-08 15:05 | 43.03864 | -72.49317 | 7051 ft | 162 kts | 73° |
| 2026-05-08 15:06 | 43.04182 | -72.47841 | 7050 ft | 162 kts | 73° |
| 2026-05-08 15:06 | 43.04500 | -72.46367 | 7051 ft | 161 kts | 73° |
| 2026-05-08 15:06 | 43.04817 | -72.44895 | 7050 ft | 161 kts | 73° |
| 2026-05-08 15:06 | 43.05134 | -72.43419 | 7050 ft | 161 kts | 73° |
| 2026-05-08 15:07 | 43.05451 | -72.41943 | 7052 ft | 161 kts | 73° |
| 2026-05-08 15:07 | 43.05769 | -72.40467 | 7053 ft | 162 kts | 73° |
| 2026-05-08 15:07 | 43.06086 | -72.38989 | 7052 ft | 162 kts | 73° |
| 2026-05-08 15:07 | 43.06402 | -72.37506 | 7052 ft | 162 kts | 73° |
| 2026-05-08 15:08 | 43.06720 | -72.36026 | 7052 ft | 162 kts | 73° |
| 2026-05-08 15:08 | 43.06928 | -72.35053 | 7051 ft | 162 kts | 73° |
| 2026-05-08 15:08 | 43.07349 | -72.33089 | 7051 ft | 162 kts | 73° |
| 2026-05-08 15:08 | 43.07665 | -72.31611 | 7050 ft | 162 kts | 73° |
| 2026-05-08 15:09 | 43.07981 | -72.30133 | 7051 ft | 162 kts | 73° |
| 2026-05-08 15:09 | 43.08296 | -72.28655 | 7049 ft | 162 kts | 73° |
| 2026-05-08 15:09 | 43.08611 | -72.27177 | 7051 ft | 162 kts | 73° |
| 2026-05-08 15:09 | 43.08928 | -72.25693 | 7051 ft | 162 kts | 73° |
| 2026-05-08 15:10 | 43.09243 | -72.24214 | 7051 ft | 162 kts | 73° |
| 2026-05-08 15:10 | 43.09559 | -72.22733 | 7051 ft | 162 kts | 73° |
| 2026-05-08 15:10 | 43.09873 | -72.21253 | 7051 ft | 162 kts | 73° |
| 2026-05-08 15:10 | 43.10188 | -72.19775 | 7050 ft | 162 kts | 73° |
| 2026-05-08 15:11 | 43.10502 | -72.18297 | 7049 ft | 162 kts | 73° |
| 2026-05-08 15:11 | 43.10815 | -72.16818 | 7050 ft | 162 kts | 73° |
| 2026-05-08 15:11 | 43.11129 | -72.15338 | 7050 ft | 162 kts | 73° |
| 2026-05-08 15:11 | 43.11441 | -72.13856 | 7051 ft | 162 kts | 73° |
| 2026-05-08 15:12 | 43.11758 | -72.12372 | 7050 ft | 162 kts | 73° |
| 2026-05-08 15:12 | 43.12069 | -72.10905 | 7051 ft | 162 kts | 73° |
| 2026-05-08 15:12 | 43.12382 | -72.09424 | 7052 ft | 162 kts | 73° |
| 2026-05-08 15:12 | 43.12694 | -72.07945 | 7052 ft | 162 kts | 73° |
| 2026-05-08 15:13 | 43.13008 | -72.06463 | 7050 ft | 162 kts | 73° |
| 2026-05-08 15:13 | 43.13321 | -72.04979 | 7050 ft | 162 kts | 73° |
| 2026-05-08 15:13 | 43.13633 | -72.03499 | 7051 ft | 162 kts | 73° |
| 2026-05-08 15:13 | 43.13945 | -72.02019 | 7053 ft | 162 kts | 73° |
| 2026-05-08 15:14 | 43.14257 | -72.00537 | 7050 ft | 162 kts | 73° |
| 2026-05-08 15:14 | 43.14568 | -71.99058 | 7053 ft | 162 kts | 73° |
| 2026-05-08 15:14 | 43.14881 | -71.97578 | 7051 ft | 162 kts | 73° |
| 2026-05-08 15:14 | 43.15191 | -71.96094 | 7050 ft | 162 kts | 73° |
| 2026-05-08 15:15 | 43.15500 | -71.94630 | 7052 ft | 162 kts | 73° |
| 2026-05-08 15:15 | 43.15811 | -71.93144 | 7051 ft | 162 kts | 73° |
| 2026-05-08 15:15 | 43.16122 | -71.91663 | 7052 ft | 162 kts | 73° |
| 2026-05-08 15:15 | 43.16434 | -71.90179 | 7052 ft | 162 kts | 73° |
| 2026-05-08 15:16 | 43.16745 | -71.88692 | 7052 ft | 162 kts | 73° |
| 2026-05-08 15:16 | 43.17055 | -71.87205 | 7051 ft | 162 kts | 73° |
| 2026-05-08 15:16 | 43.17366 | -71.85715 | 7052 ft | 163 kts | 73° |
| 2026-05-08 15:16 | 43.17678 | -71.84228 | 7054 ft | 162 kts | 73° |
| 2026-05-08 15:17 | 43.17984 | -71.82765 | 7054 ft | 163 kts | 73° |
| 2026-05-08 15:17 | 43.18301 | -71.81245 | 7052 ft | 163 kts | 73° |
| 2026-05-08 15:17 | 43.18611 | -71.79757 | 7052 ft | 162 kts | 73° |
| 2026-05-08 15:17 | 43.18921 | -71.78269 | 7050 ft | 163 kts | 73° |
| 2026-05-08 15:18 | 43.19231 | -71.76780 | 7053 ft | 162 kts | 73° |
| 2026-05-08 15:18 | 43.19540 | -71.75297 | 7050 ft | 162 kts | 73° |
| 2026-05-08 15:18 | 43.19848 | -71.73814 | 7052 ft | 162 kts | 73° |
| 2026-05-08 15:18 | 43.20156 | -71.72330 | 7051 ft | 162 kts | 73° |
| 2026-05-08 15:19 | 43.20461 | -71.70865 | 7051 ft | 162 kts | 73° |
| 2026-05-08 15:19 | 43.20769 | -71.69381 | 7050 ft | 162 kts | 73° |
| 2026-05-08 15:19 | 43.21076 | -71.67898 | 7054 ft | 163 kts | 73° |
| 2026-05-08 15:19 | 43.21385 | -71.66405 | 7049 ft | 162 kts | 73° |
| 2026-05-08 15:20 | 43.21693 | -71.64918 | 7051 ft | 162 kts | 73° |
| 2026-05-08 15:20 | 43.22002 | -71.63427 | 7050 ft | 163 kts | 73° |
| 2026-05-08 15:20 | 43.22309 | -71.61935 | 7051 ft | 162 kts | 73° |
| 2026-05-08 15:20 | 43.22618 | -71.60448 | 7051 ft | 162 kts | 73° |
| 2026-05-08 15:21 | 43.22924 | -71.58961 | 7049 ft | 162 kts | 73° |
| 2026-05-08 15:21 | 43.23229 | -71.57480 | 7050 ft | 162 kts | 73° |
| 2026-05-08 15:21 | 43.23549 | -71.55967 | 6977 ft | 168 kts | 69° |
| 2026-05-08 15:21 | 43.23865 | -71.54423 | 6973 ft | 168 kts | 70° |
| 2026-05-08 15:22 | 43.24177 | -71.52877 | 6973 ft | 168 kts | 70° |
| 2026-05-08 15:22 | 43.24495 | -71.51324 | 6969 ft | 169 kts | 69° |
| 2026-05-08 15:22 | 43.24818 | -71.49769 | 6972 ft | 170 kts | 69° |
| 2026-05-08 15:22 | 43.25140 | -71.48206 | 6973 ft | 170 kts | 69° |
| 2026-05-08 15:23 | 43.25457 | -71.46645 | 6965 ft | 171 kts | 70° |
| 2026-05-08 15:23 | 43.25776 | -71.45089 | 6964 ft | 170 kts | 70° |
| 2026-05-08 15:23 | 43.26099 | -71.43511 | 6964 ft | 171 kts | 69° |
| 2026-05-08 15:23 | 43.26418 | -71.41959 | 6962 ft | 171 kts | 70° |
| 2026-05-08 15:24 | 43.26741 | -71.40384 | 6963 ft | 171 kts | 70° |
| 2026-05-08 15:24 | 43.27065 | -71.38800 | 6961 ft | 171 kts | 69° |
| 2026-05-08 15:24 | 43.27386 | -71.37225 | 6960 ft | 170 kts | 69° |
| 2026-05-08 15:24 | 43.27703 | -71.35656 | 6958 ft | 171 kts | 70° |
| 2026-05-08 15:25 | 43.28025 | -71.34081 | 6959 ft | 171 kts | 69° |
| 2026-05-08 15:25 | 43.28350 | -71.32506 | 6959 ft | 171 kts | 69° |
| 2026-05-08 15:25 | 43.28673 | -71.30928 | 6960 ft | 172 kts | 71° |
| 2026-05-08 15:25 | 43.28990 | -71.29351 | 6960 ft | 172 kts | 71° |
| 2026-05-08 15:26 | 43.29314 | -71.27762 | 6957 ft | 172 kts | 71° |
| 2026-05-08 15:26 | 43.29636 | -71.26180 | 6958 ft | 172 kts | 71° |
| 2026-05-08 15:26 | 43.29957 | -71.24596 | 6958 ft | 172 kts | 71° |
| 2026-05-08 15:26 | 43.30274 | -71.23026 | 6961 ft | 173 kts | 71° |
| 2026-05-08 15:27 | 43.30596 | -71.21436 | 6950 ft | 173 kts | 71° |
| 2026-05-08 15:27 | 43.30918 | -71.19851 | 6949 ft | 172 kts | 71° |
| 2026-05-08 15:27 | 43.31240 | -71.18263 | 6951 ft | 173 kts | 71° |
| 2026-05-08 15:27 | 43.31563 | -71.16667 | 6947 ft | 173 kts | 71° |
| 2026-05-08 15:28 | 43.31884 | -71.15072 | 6949 ft | 173 kts | 71° |
| 2026-05-08 15:28 | 43.32208 | -71.13474 | 6946 ft | 174 kts | 71° |
| 2026-05-08 15:28 | 43.32527 | -71.11881 | 6982 ft | 171 kts | 71° |
| 2026-05-08 15:28 | 43.32845 | -71.10308 | 7012 ft | 171 kts | 71° |
| 2026-05-08 15:29 | 43.33163 | -71.08732 | 7011 ft | 172 kts | 71° |
| 2026-05-08 15:29 | 43.33479 | -71.07162 | 7010 ft | 172 kts | 71° |
| 2026-05-08 15:29 | 43.33802 | -71.05553 | 7010 ft | 172 kts | 71° |
| 2026-05-08 15:29 | 43.34119 | -71.03965 | 7009 ft | 173 kts | 71° |
| 2026-05-08 15:30 | 43.34438 | -71.02378 | 7009 ft | 172 kts | 71° |
| 2026-05-08 15:30 | 43.34755 | -71.00807 | 7009 ft | 173 kts | 71° |
| 2026-05-08 15:30 | 43.35075 | -70.99209 | 7013 ft | 173 kts | 71° |
| 2026-05-08 15:30 | 43.35286 | -70.98149 | 7012 ft | 173 kts | 71° |
| 2026-05-08 15:31 | 43.35709 | -70.96034 | 7012 ft | 173 kts | 71° |
| 2026-05-08 15:31 | 43.35928 | -70.94945 | 7011 ft | 173 kts | 71° |
| 2026-05-08 15:31 | 43.36246 | -70.93356 | 7005 ft | 173 kts | 72° |
| 2026-05-08 15:31 | 43.36668 | -70.91242 | 7002 ft | 173 kts | 71° |
| 2026-05-08 15:32 | 43.36883 | -70.90164 | 7001 ft | 173 kts | 71° |
| 2026-05-08 15:32 | 43.37202 | -70.88567 | 7002 ft | 174 kts | 71° |
| 2026-05-08 15:32 | 43.37519 | -70.86967 | 7000 ft | 173 kts | 71° |
| 2026-05-08 15:32 | 43.37836 | -70.85376 | 7000 ft | 173 kts | 71° |
| 2026-05-08 15:33 | 43.38150 | -70.83802 | 7000 ft | 173 kts | 71° |
| 2026-05-08 15:33 | 43.38468 | -70.82196 | 7000 ft | 173 kts | 72° |
| 2026-05-08 15:33 | 43.38786 | -70.80595 | 7003 ft | 173 kts | 71° |
| 2026-05-08 15:33 | 43.39102 | -70.79002 | 7005 ft | 173 kts | 71° |
| 2026-05-08 15:34 | 43.39419 | -70.77405 | 7003 ft | 172 kts | 71° |
| 2026-05-08 15:34 | 43.39733 | -70.75816 | 7000 ft | 173 kts | 71° |
| 2026-05-08 15:34 | 43.40050 | -70.74218 | 6999 ft | 173 kts | 71° |
| 2026-05-08 15:34 | 43.40362 | -70.72640 | 6997 ft | 174 kts | 71° |
| 2026-05-08 15:35 | 43.40683 | -70.71017 | 7004 ft | 174 kts | 71° |
| 2026-05-08 15:35 | 43.40999 | -70.69412 | 6998 ft | 174 kts | 71° |
| 2026-05-08 15:35 | 43.41311 | -70.67831 | 6997 ft | 174 kts | 71° |
| 2026-05-08 15:35 | 43.41628 | -70.66227 | 6998 ft | 174 kts | 71° |
| 2026-05-08 15:36 | 43.41944 | -70.64625 | 7000 ft | 173 kts | 71° |
| 2026-05-08 15:36 | 43.42261 | -70.63013 | 6994 ft | 174 kts | 71° |
| 2026-05-08 15:36 | 43.42600 | -70.61437 | 6999 ft | 171 kts | 63° |
| 2026-05-08 15:36 | 43.43260 | -70.60101 | 6995 ft | 168 kts | 46° |
| 2026-05-08 15:37 | 43.43953 | -70.58825 | 6998 ft | 169 kts | 49° |
| 2026-05-08 15:37 | 43.44651 | -70.57503 | 6993 ft | 170 kts | 49° |
| 2026-05-08 15:37 | 43.45348 | -70.56189 | 6997 ft | 170 kts | 49° |
| 2026-05-08 15:37 | 43.46048 | -70.54882 | 6993 ft | 170 kts | 48° |
| 2026-05-08 15:38 | 43.46752 | -70.53570 | 6993 ft | 170 kts | 49° |
| 2026-05-08 15:38 | 43.47449 | -70.52258 | 6992 ft | 170 kts | 49° |
| 2026-05-08 15:38 | 43.48149 | -70.50947 | 6994 ft | 169 kts | 49° |
| 2026-05-08 15:38 | 43.48845 | -70.49641 | 6995 ft | 169 kts | 49° |
| 2026-05-08 15:39 | 43.49538 | -70.48329 | 6994 ft | 169 kts | 48° |
| 2026-05-08 15:39 | 43.50249 | -70.47036 | 6993 ft | 170 kts | 48° |
| 2026-05-08 15:39 | 43.50953 | -70.45733 | 6991 ft | 169 kts | 48° |
| 2026-05-08 15:39 | 43.51652 | -70.44421 | 6991 ft | 171 kts | 48° |
| 2026-05-08 15:40 | 43.52352 | -70.43103 | 6986 ft | 170 kts | 49° |
| 2026-05-08 15:40 | 43.53047 | -70.41787 | 6985 ft | 169 kts | 49° |
| 2026-05-08 15:40 | 43.53732 | -70.40502 | 6991 ft | 169 kts | 49° |
| 2026-05-08 15:40 | 43.54426 | -70.39196 | 6985 ft | 169 kts | 48° |
| 2026-05-08 15:41 | 43.55119 | -70.37890 | 6989 ft | 168 kts | 49° |
| 2026-05-08 15:41 | 43.55814 | -70.36578 | 6987 ft | 169 kts | 49° |
| 2026-05-08 15:41 | 43.56508 | -70.35270 | 6984 ft | 169 kts | 49° |
| 2026-05-08 15:41 | 43.57193 | -70.33979 | 6984 ft | 169 kts | 49° |
| 2026-05-08 15:42 | 43.57883 | -70.32675 | 6984 ft | 169 kts | 49° |
| 2026-05-08 15:42 | 43.58577 | -70.31364 | 6982 ft | 169 kts | 49° |
| 2026-05-08 15:42 | 43.59269 | -70.30051 | 6982 ft | 169 kts | 49° |
| 2026-05-08 15:42 | 43.59966 | -70.28738 | 6985 ft | 169 kts | 49° |
| 2026-05-08 15:43 | 43.60660 | -70.27429 | 6981 ft | 169 kts | 48° |
| 2026-05-08 15:43 | 43.61352 | -70.26116 | 6978 ft | 169 kts | 48° |
| 2026-05-08 15:43 | 43.62044 | -70.24806 | 6980 ft | 169 kts | 48° |
| 2026-05-08 15:43 | 43.62735 | -70.23496 | 6980 ft | 169 kts | 48° |
| 2026-05-08 15:44 | 43.63427 | -70.22186 | 6979 ft | 169 kts | 48° |
| 2026-05-08 15:44 | 43.64109 | -70.20893 | 6978 ft | 169 kts | 48° |
| 2026-05-08 15:44 | 43.64802 | -70.19575 | 6981 ft | 170 kts | 48° |
| 2026-05-08 15:44 | 43.65497 | -70.18256 | 6981 ft | 169 kts | 48° |
| 2026-05-08 15:45 | 43.66190 | -70.16944 | 6979 ft | 169 kts | 48° |
| 2026-05-08 15:45 | 43.66881 | -70.15632 | 6979 ft | 169 kts | 48° |
| 2026-05-08 15:45 | 43.67574 | -70.14319 | 6979 ft | 169 kts | 48° |
| 2026-05-08 15:45 | 43.68265 | -70.13003 | 6979 ft | 169 kts | 48° |
| 2026-05-08 15:46 | 43.68955 | -70.11690 | 6979 ft | 169 kts | 48° |
| 2026-05-08 15:46 | 43.69648 | -70.10376 | 6977 ft | 169 kts | 48° |
| 2026-05-08 15:46 | 43.70339 | -70.09059 | 6979 ft | 169 kts | 49° |
| 2026-05-08 15:46 | 43.71020 | -70.07760 | 6979 ft | 169 kts | 48° |
| 2026-05-08 15:47 | 43.71714 | -70.06439 | 6979 ft | 169 kts | 48° |
| 2026-05-08 15:47 | 43.72404 | -70.05121 | 6976 ft | 169 kts | 48° |
| 2026-05-08 15:47 | 43.73095 | -70.03805 | 6978 ft | 169 kts | 48° |
| 2026-05-08 15:47 | 43.73784 | -70.02492 | 6979 ft | 169 kts | 48° |
| 2026-05-08 15:48 | 43.75158 | -69.99867 | 6981 ft | 170 kts | 48° |
| 2026-05-08 15:48 | 43.75849 | -69.98549 | 6983 ft | 169 kts | 48° |
| 2026-05-08 15:48 | 43.76540 | -69.97232 | 6984 ft | 169 kts | 48° |
| 2026-05-08 15:49 | 43.77229 | -69.95911 | 6982 ft | 170 kts | 48° |
| 2026-05-08 15:49 | 43.77917 | -69.94589 | 6980 ft | 168 kts | 49° |
| 2026-05-08 15:49 | 43.78614 | -69.93258 | 6978 ft | 170 kts | 49° |
| 2026-05-08 15:49 | 43.79308 | -69.91941 | 6980 ft | 169 kts | 49° |
| 2026-05-08 15:50 | 43.80002 | -69.90615 | 6980 ft | 170 kts | 49° |
| 2026-05-08 15:50 | 43.80683 | -69.89286 | 6981 ft | 169 kts | 49° |
| 2026-05-08 15:50 | 43.81373 | -69.87968 | 6979 ft | 169 kts | 48° |
| 2026-05-08 15:50 | 43.82071 | -69.86647 | 6982 ft | 170 kts | 48° |
| 2026-05-08 15:51 | 43.82759 | -69.85327 | 6980 ft | 170 kts | 49° |
| 2026-05-08 15:51 | 43.83443 | -69.84012 | 6980 ft | 169 kts | 49° |
| 2026-05-08 15:51 | 43.84124 | -69.82687 | 6980 ft | 170 kts | 49° |
| 2026-05-08 15:51 | 43.84818 | -69.81366 | 6981 ft | 169 kts | 48° |
| 2026-05-08 15:52 | 43.85511 | -69.80035 | 6978 ft | 169 kts | 49° |
| 2026-05-08 15:52 | 43.86198 | -69.78718 | 6980 ft | 168 kts | 48° |
| 2026-05-08 15:52 | 43.86881 | -69.77402 | 6978 ft | 167 kts | 49° |
| 2026-05-08 15:52 | 43.87565 | -69.76083 | 6976 ft | 169 kts | 49° |
| 2026-05-08 15:53 | 43.88244 | -69.74783 | 6975 ft | 167 kts | 48° |
| 2026-05-08 15:53 | 43.88923 | -69.73464 | 6975 ft | 167 kts | 49° |
| 2026-05-08 15:53 | 43.89596 | -69.72177 | 6971 ft | 165 kts | 49° |
| 2026-05-08 15:53 | 43.90260 | -69.70888 | 6971 ft | 165 kts | 49° |
| 2026-05-08 15:54 | 43.90934 | -69.69585 | 6972 ft | 167 kts | 48° |
| 2026-05-08 15:54 | 43.91620 | -69.68267 | 6974 ft | 167 kts | 49° |
| 2026-05-08 15:54 | 43.92295 | -69.66951 | 6974 ft | 167 kts | 49° |
| 2026-05-08 15:54 | 43.92971 | -69.65655 | 6970 ft | 165 kts | 49° |
| 2026-05-08 15:55 | 43.93643 | -69.64351 | 6971 ft | 166 kts | 49° |
| 2026-05-08 15:55 | 43.94975 | -69.61780 | 6970 ft | 163 kts | 49° |
| 2026-05-08 15:55 | 43.95640 | -69.60486 | 6972 ft | 169 kts | 49° |
| 2026-05-08 15:56 | 43.96319 | -69.59168 | 6974 ft | 168 kts | 49° |
| 2026-05-08 15:56 | 43.96998 | -69.57867 | 6975 ft | 167 kts | 49° |
| 2026-05-08 15:56 | 43.97676 | -69.56549 | 6976 ft | 167 kts | 48° |
| 2026-05-08 15:56 | 43.98358 | -69.55220 | 6978 ft | 170 kts | 49° |
| 2026-05-08 15:57 | 43.99049 | -69.53882 | 6980 ft | 171 kts | 48° |
| 2026-05-08 15:57 | 43.99747 | -69.52532 | 6982 ft | 172 kts | 48° |
| 2026-05-08 15:57 | 44.00443 | -69.51186 | 6980 ft | 170 kts | 48° |
| 2026-05-08 15:57 | 44.01131 | -69.49856 | 6979 ft | 169 kts | 48° |
| 2026-05-08 15:58 | 44.01818 | -69.48532 | 6979 ft | 168 kts | 49° |
| 2026-05-08 15:58 | 44.02495 | -69.47210 | 6976 ft | 167 kts | 49° |
| 2026-05-08 15:58 | 44.03162 | -69.45892 | 6974 ft | 166 kts | 50° |
| 2026-05-08 15:58 | 44.03826 | -69.44592 | 6972 ft | 165 kts | 48° |
| 2026-05-08 15:59 | 44.04500 | -69.43286 | 6973 ft | 169 kts | 49° |
| 2026-05-08 15:59 | 44.05188 | -69.41953 | 6974 ft | 170 kts | 48° |
| 2026-05-08 15:59 | 44.05869 | -69.40619 | 6975 ft | 169 kts | 49° |
| 2026-05-08 15:59 | 44.06555 | -69.39292 | 6977 ft | 168 kts | 49° |
| 2026-05-08 16:00 | 44.07233 | -69.37956 | 6977 ft | 170 kts | 49° |
| 2026-05-08 16:00 | 44.07916 | -69.36626 | 6975 ft | 167 kts | 49° |
| 2026-05-08 16:00 | 44.08603 | -69.35304 | 6974 ft | 169 kts | 49° |
| 2026-05-08 16:00 | 44.09283 | -69.33985 | 6972 ft | 165 kts | 49° |
| 2026-05-08 16:01 | 44.09940 | -69.32690 | 6973 ft | 166 kts | 49° |
| 2026-05-08 16:01 | 44.10612 | -69.31374 | 6970 ft | 166 kts | 49° |
| 2026-05-08 16:01 | 44.11281 | -69.30069 | 6966 ft | 167 kts | 49° |
| 2026-05-08 16:01 | 44.11958 | -69.28734 | 6960 ft | 171 kts | 49° |
| 2026-05-08 16:02 | 44.12649 | -69.27369 | 6959 ft | 172 kts | 49° |
| 2026-05-08 16:02 | 44.13342 | -69.26015 | 6958 ft | 171 kts | 48° |
| 2026-05-08 16:02 | 44.14036 | -69.24665 | 6956 ft | 170 kts | 48° |
| 2026-05-08 16:02 | 44.14723 | -69.23320 | 6959 ft | 171 kts | 49° |
| 2026-05-08 16:03 | 44.15406 | -69.21980 | 6958 ft | 168 kts | 49° |
| 2026-05-08 16:03 | 44.16074 | -69.20680 | 6953 ft | 167 kts | 49° |
| 2026-05-08 16:03 | 44.16742 | -69.19353 | 6948 ft | 168 kts | 49° |
| 2026-05-08 16:03 | 44.17420 | -69.18022 | 6949 ft | 169 kts | 49° |
| 2026-05-08 16:04 | 44.18102 | -69.16689 | 6947 ft | 168 kts | 49° |
| 2026-05-08 16:04 | 44.18775 | -69.15360 | 6946 ft | 168 kts | 49° |
| 2026-05-08 16:04 | 44.19451 | -69.14037 | 6952 ft | 168 kts | 49° |
| 2026-05-08 16:04 | 44.20129 | -69.12705 | 6953 ft | 168 kts | 49° |
| 2026-05-08 16:05 | 44.20800 | -69.11386 | 6952 ft | 168 kts | 49° |
| 2026-05-08 16:05 | 44.21478 | -69.10049 | 6948 ft | 169 kts | 49° |
| 2026-05-08 16:05 | 44.22159 | -69.08705 | 6951 ft | 170 kts | 49° |
| 2026-05-08 16:05 | 44.22841 | -69.07362 | 6954 ft | 170 kts | 49° |
| 2026-05-08 16:06 | 44.23523 | -69.06020 | 6947 ft | 169 kts | 49° |
| 2026-05-08 16:06 | 44.24199 | -69.04686 | 6943 ft | 167 kts | 49° |
| 2026-05-08 16:06 | 44.24868 | -69.03363 | 6947 ft | 167 kts | 49° |
| 2026-05-08 16:06 | 44.25539 | -69.02040 | 6949 ft | 168 kts | 49° |
| 2026-05-08 16:07 | 44.26211 | -69.00711 | 6946 ft | 168 kts | 49° |
| 2026-05-08 16:07 | 44.26883 | -68.99379 | 6943 ft | 168 kts | 49° |
| 2026-05-08 16:07 | 44.27560 | -68.98046 | 6943 ft | 168 kts | 49° |
| 2026-05-08 16:07 | 44.28235 | -68.96710 | 6942 ft | 169 kts | 49° |
| 2026-05-08 16:08 | 44.28912 | -68.95371 | 6942 ft | 169 kts | 49° |
| 2026-05-08 16:08 | 44.29591 | -68.94028 | 6942 ft | 169 kts | 49° |
| 2026-05-08 16:08 | 44.30269 | -68.92686 | 6947 ft | 169 kts | 49° |
| 2026-05-08 16:08 | 44.30947 | -68.91343 | 6946 ft | 170 kts | 49° |
| 2026-05-08 16:09 | 44.31627 | -68.89991 | 6946 ft | 170 kts | 49° |
| 2026-05-08 16:09 | 44.32078 | -68.89095 | 6944 ft | 170 kts | 49° |
| 2026-05-08 16:09 | 44.32981 | -68.87305 | 6945 ft | 169 kts | 49° |
| 2026-05-08 16:09 | 44.33661 | -68.85957 | 6944 ft | 170 kts | 49° |
| 2026-05-08 16:10 | 44.34340 | -68.84606 | 6943 ft | 170 kts | 49° |
| 2026-05-08 16:10 | 44.35012 | -68.83264 | 6940 ft | 169 kts | 49° |
| 2026-05-08 16:10 | 44.35690 | -68.81923 | 6942 ft | 169 kts | 49° |
| 2026-05-08 16:10 | 44.36363 | -68.80591 | 6941 ft | 169 kts | 49° |
| 2026-05-08 16:11 | 44.37033 | -68.79260 | 6939 ft | 167 kts | 49° |
| 2026-05-08 16:11 | 44.37699 | -68.77923 | 6935 ft | 167 kts | 50° |
| 2026-05-08 16:11 | 44.38370 | -68.76586 | 6937 ft | 169 kts | 49° |
| 2026-05-08 16:11 | 44.39047 | -68.75242 | 6937 ft | 169 kts | 49° |
| 2026-05-08 16:12 | 44.39723 | -68.73894 | 6937 ft | 169 kts | 49° |
| 2026-05-08 16:12 | 44.40400 | -68.72544 | 6937 ft | 170 kts | 49° |
| 2026-05-08 16:12 | 44.41080 | -68.71191 | 6937 ft | 170 kts | 49° |
| 2026-05-08 16:12 | 44.41760 | -68.69833 | 6938 ft | 170 kts | 49° |
| 2026-05-08 16:13 | 44.42438 | -68.68476 | 6936 ft | 170 kts | 49° |
| 2026-05-08 16:13 | 44.43115 | -68.67122 | 6936 ft | 170 kts | 49° |
| 2026-05-08 16:13 | 44.43791 | -68.65770 | 6937 ft | 170 kts | 49° |
| 2026-05-08 16:13 | 44.44471 | -68.64409 | 6938 ft | 172 kts | 49° |
| 2026-05-08 16:14 | 44.45154 | -68.63038 | 6936 ft | 171 kts | 49° |
| 2026-05-08 16:14 | 44.45836 | -68.61678 | 6937 ft | 171 kts | 49° |
| 2026-05-08 16:14 | 44.46517 | -68.60316 | 6937 ft | 170 kts | 49° |
| 2026-05-08 16:14 | 44.47187 | -68.58971 | 6938 ft | 171 kts | 49° |
| 2026-05-08 16:15 | 44.47867 | -68.57606 | 6937 ft | 171 kts | 49° |
| 2026-05-08 16:15 | 44.48547 | -68.56241 | 6937 ft | 171 kts | 49° |
| 2026-05-08 16:15 | 44.49225 | -68.54876 | 6932 ft | 170 kts | 49° |
| 2026-05-08 16:15 | 44.49906 | -68.53515 | 6887 ft | 173 kts | 48° |
| 2026-05-08 16:16 | 44.50607 | -68.52114 | 6638 ft | 177 kts | 50° |
| 2026-05-08 16:16 | 44.51314 | -68.50693 | 6394 ft | 179 kts | 49° |
| 2026-05-08 16:16 | 44.52025 | -68.49261 | 6149 ft | 179 kts | 49° |
| 2026-05-08 16:16 | 44.52734 | -68.47834 | 5902 ft | 178 kts | 49° |
| 2026-05-08 16:17 | 44.53445 | -68.46408 | 5652 ft | 179 kts | 49° |
| 2026-05-08 16:17 | 44.53917 | -68.45458 | 5487 ft | 179 kts | 49° |
| 2026-05-08 16:17 | 44.54870 | -68.43543 | 5153 ft | 178 kts | 49° |
| 2026-05-08 16:17 | 44.55580 | -68.42115 | 4900 ft | 179 kts | 50° |
| 2026-05-08 16:18 | 44.56288 | -68.40690 | 4654 ft | 178 kts | 49° |
| 2026-05-08 16:18 | 44.56753 | -68.39750 | 4492 ft | 177 kts | 50° |
| 2026-05-08 16:18 | 44.57682 | -68.37866 | 4152 ft | 171 kts | 50° |
| 2026-05-08 16:18 | 44.58119 | -68.36975 | 3978 ft | 165 kts | 49° |
| 2026-05-08 16:19 | 44.58976 | -68.35243 | 3638 ft | 161 kts | 49° |
| 2026-05-08 16:19 | 44.59611 | -68.33961 | 3384 ft | 160 kts | 49° |
| 2026-05-08 16:19 | 44.60020 | -68.33108 | 3210 ft | 160 kts | 53° |
| 2026-05-08 16:19 | 44.60316 | -68.31563 | 2944 ft | 167 kts | 87° |
| 2026-05-08 16:20 | 44.60057 | -68.30060 | 2676 ft | 157 kts | 118° |
| 2026-05-08 16:20 | 44.59383 | -68.28937 | 2410 ft | 147 kts | 147° |
| 2026-05-08 16:20 | 44.58477 | -68.28401 | 2140 ft | 139 kts | 182° |
| 2026-05-08 16:20 | 44.57545 | -68.28512 | 2109 ft | 134 kts | 190° |
| 2026-05-08 16:21 | 44.56660 | -68.28922 | 2107 ft | 139 kts | 207° |
| 2026-05-08 16:21 | 44.55765 | -68.29446 | 2111 ft | 140 kts | 207° |
| 2026-05-08 16:21 | 44.54858 | -68.29987 | 2051 ft | 145 kts | 208° |
| 2026-05-08 16:21 | 44.53918 | -68.30594 | 1867 ft | 152 kts | 208° |
| 2026-05-08 16:22 | 44.52942 | -68.31220 | 1665 ft | 155 kts | 207° |
| 2026-05-08 16:22 | 44.51954 | -68.31847 | 1451 ft | 156 kts | 207° |
| 2026-05-08 16:22 | 44.50967 | -68.32473 | 1241 ft | 155 kts | 206° |
| 2026-05-08 16:22 | 44.50006 | -68.33092 | 1039 ft | 149 kts | 207° |
| 2026-05-08 16:23 | 44.49084 | -68.33688 | 844 ft | 145 kts | 206° |
| 2026-05-08 16:23 | 44.48172 | -68.34264 | 652 ft | 144 kts | 206° |
| 2026-05-08 16:23 | 44.47265 | -68.34845 | 477 ft | 134 kts | 206° |
| 2026-05-08 16:23 | 44.46581 | -68.35302 | 335 ft | 89 kts | 208° |
| 2026-05-08 16:24 | 44.46035 | -68.35675 | 193 ft | 84 kts | 208° |
| 2026-05-08 16:24 | 44.45536 | -68.35996 | 94 ft | 73 kts | 206° |
| 2026-05-08 16:24 | 44.45143 | -68.36240 | 88 ft | 53 kts | 204° |
| 2026-05-08 16:24 | 44.44868 | -68.36408 | 89 ft | 33 kts | 203° |
| 2026-05-08 16:25 | 44.44679 | -68.36472 | 87 ft | 27 kts | 121° |
| 2026-05-08 16:25 | 44.44684 | -68.36222 | 88 ft | 33 kts | 88° |
| 2026-05-08 16:25 | 44.44694 | -68.35937 | 90 ft | 21 kts | 89° |
| 2026-05-08 16:25 | 44.44679 | -68.35824 | 88 ft | 8 kts | 175° |
| 2026-05-08 16:26 | 44.44541 | -68.35725 | 92 ft | 30 kts | 152° |
| 2026-05-08 16:26 | 44.44423 | -68.35673 | 88 ft | 14 kts | 236° |
| 2026-05-08 16:26 | 44.44357 | -68.35823 | 89 ft | 15 kts | 240° |
| 2026-05-08 16:26 | 44.44315 | -68.35894 | 89 ft | 13 kts | 188° |
| 2026-05-08 16:27 | 44.44281 | -68.35940 | 88 ft | 2 kts | 251° |
| 2026-05-08 16:30 | 44.44281 | -68.35939 | 88 ft | 0 kts | 251° |